Time;durP1;ratioP1;P1;durP2;ratioP2;P2;SDS_P1;SDS_P2;PMS_P1;PMS_P2;Temp;Humidity;BMP_temperature;BMP_pressure;BME280_temperature;BME280_humidity;BME280_pressure;Samples;Min_cycle;Max_cycle;Signal;HPM_P1;HPM_P2
2021/08/09 00:02:01;;;;;;;26.02;4.85;;;;;;;16.04;77.53;101309.97;4970989;28;20478;-46
2021/08/09 00:04:26;;;;;;;23.85;5.10;;;;;;;16.01;77.94;101311.75;4962100;28;20573;-49
2021/08/09 00:06:52;;;;;;;23.55;5.63;;;;;;;15.89;77.99;101317.03;4970012;28;20160;-48
2021/08/09 00:09:17;;;;;;;19.77;5.03;;;;;;;15.82;78.03;101319.66;4967983;28;20035;-49
2021/08/09 00:11:42;;;;;;;22.42;4.85;;;;;;;15.79;77.19;101317.03;4966599;28;20019;-46
2021/08/09 00:14:08;;;;;;;25.17;4.97;;;;;;;15.62;78.21;101331.03;4948943;28;20042;-49
2021/08/09 00:16:34;;;;;;;21.95;5.40;;;;;;;15.63;77.81;101317.91;4964257;28;20470;-46
2021/08/09 00:18:59;;;;;;;16.23;4.93;;;;;;;15.41;78.36;101316.13;4970631;28;20482;-47
2021/08/09 00:21:25;;;;;;;23.30;5.07;;;;;;;15.26;79.49;101316.09;4963393;28;20030;-47
2021/08/09 00:23:50;;;;;;;21.60;5.32;;;;;;;15.17;80.09;101311.72;4967669;28;20037;-47
2021/08/09 00:26:16;;;;;;;17.90;4.90;;;;;;;15.55;79.01;101317.06;4971676;28;20849;-49
2021/08/09 00:28:42;;;;;;;20.73;5.05;;;;;;;15.64;77.94;101319.66;4969879;28;20046;-52
2021/08/09 00:31:08;;;;;;;19.02;4.82;;;;;;;15.66;78.14;101317.94;4969565;28;20111;-51
2021/08/09 00:33:33;;;;;;;21.85;5.15;;;;;;;15.78;77.25;101314.41;4964073;28;20072;-47
2021/08/09 00:35:58;;;;;;;28.38;5.47;;;;;;;15.64;77.72;101317.03;4976881;28;20042;-47
2021/08/09 00:38:24;;;;;;;22.95;5.30;;;;;;;15.75;78.02;101322.28;4959998;28;20034;-47
2021/08/09 00:40:49;;;;;;;18.92;5.32;;;;;;;15.77;77.54;101325.81;4967985;28;20125;-46
2021/08/09 00:43:14;;;;;;;25.85;5.15;;;;;;;15.84;77.46;101322.28;4961930;28;20029;-47
2021/08/09 00:45:40;;;;;;;19.27;5.22;;;;;;;15.86;77.77;101324.94;4967489;28;20087;-46
2021/08/09 00:48:05;;;;;;;19.20;4.95;;;;;;;15.85;77.39;101320.53;4963181;28;20032;-46
2021/08/09 00:50:31;;;;;;;21.90;5.40;;;;;;;15.82;77.03;101317.03;4967666;28;20049;-50
2021/08/09 00:52:57;;;;;;;24.83;5.18;;;;;;;15.85;77.77;101317.91;4970051;28;20046;-46
2021/08/09 00:55:23;;;;;;;24.65;5.22;;;;;;;15.91;77.01;101313.53;4965672;28;20574;-46
2021/08/09 00:57:48;;;;;;;20.48;5.13;;;;;;;15.92;77.66;101324.91;4963803;28;20057;-48
2021/08/09 01:00:14;;;;;;;20.25;4.90;;;;;;;15.96;77.26;101321.41;4968960;28;20069;-46
2021/08/09 01:02:39;;;;;;;23.98;5.40;;;;;;;15.94;77.36;101318.75;4961918;28;20361;-47
2021/08/09 01:05:06;;;;;;;21.10;5.40;;;;;;;15.96;77.19;101322.28;4970979;28;20099;-46
2021/08/09 01:07:41;;;;;;;23.75;4.85;;;;;;;15.98;76.78;101325.75;4965831;28;20149;-47
2021/08/09 01:10:13;;;;;;;22.75;4.88;;;;;;;15.94;76.98;101329.28;4966083;28;20500;-47
2021/08/09 01:12:52;;;;;;;18.88;4.60;;;;;;;15.98;76.46;101336.28;4964719;28;20027;-46
2021/08/09 01:15:29;;;;;;;19.83;4.82;;;;;;;15.94;76.63;101325.78;4964574;28;20066;-46
2021/08/09 01:17:57;;;;;;;26.75;5.38;;;;;;;15.94;77.16;101337.16;4967234;28;20164;-48
2021/08/09 01:20:38;;;;;;;25.85;5.22;;;;;;;15.94;76.98;101331.91;4983626;28;20037;-47
2021/08/09 01:23:23;;;;;;;22.30;4.70;;;;;;;15.93;76.59;101339.78;4965637;28;20041;-51
2021/08/09 01:25:52;;;;;;;18.63;4.28;;;;;;;15.90;76.46;101326.66;4967468;28;20022;-47
2021/08/09 01:28:18;;;;;;;24.00;5.00;;;;;;;15.73;77.75;101334.56;4962992;28;20105;-48
2021/08/09 01:30:45;;;;;;;21.50;5.22;;;;;;;15.61;78.03;101331.94;4966742;28;20382;-51
2021/08/09 01:33:11;;;;;;;19.90;4.70;;;;;;;15.56;78.41;101337.19;4974597;28;20403;-49
2021/08/09 01:35:37;;;;;;;19.95;4.43;;;;;;;15.62;78.33;101338.94;4961224;28;20362;-46
2021/08/09 01:38:04;;;;;;;23.65;5.25;;;;;;;15.79;77.73;101342.47;4985453;28;20026;-49
2021/08/09 01:40:31;;;;;;;24.60;4.70;;;;;;;15.88;77.09;101334.56;4965566;28;20023;-46
2021/08/09 01:42:57;;;;;;;20.50;4.90;;;;;;;15.89;77.33;101340.69;4963862;28;20026;-52
2021/08/09 01:45:23;;;;;;;20.05;4.70;;;;;;;15.89;77.23;101336.31;4969625;28;20070;-50
2021/08/09 01:47:49;;;;;;;22.17;5.32;;;;;;;15.87;77.26;101347.69;4973256;28;20149;-49
2021/08/09 01:50:14;;;;;;;22.80;5.20;;;;;;;15.90;76.69;101351.22;4965930;28;20129;-46
2021/08/09 01:52:41;;;;;;;22.02;4.57;;;;;;;15.79;77.24;101352.97;4963292;28;20060;-47
2021/08/09 01:55:08;;;;;;;19.08;4.88;;;;;;;15.75;77.28;101353.84;4969232;28;20034;-49
2021/08/09 01:57:34;;;;;;;22.50;4.90;;;;;;;15.71;76.97;101349.47;4960581;28;20050;-46
2021/08/09 01:59:59;;;;;;;18.58;4.45;;;;;;;15.53;77.79;101355.59;4965441;28;20140;-48
2021/08/09 02:02:30;;;;;;;20.00;4.53;;;;;;;15.54;77.85;101356.47;4962698;28;20387;-48
2021/08/09 02:04:56;;;;;;;15.23;4.00;;;;;;;15.67;77.13;101356.47;4966326;28;20406;-49
2021/08/09 02:07:21;;;;;;;21.33;4.90;;;;;;;15.64;77.13;101355.59;4965292;28;20046;-46
2021/08/09 02:09:47;;;;;;;22.50;5.10;;;;;;;15.65;77.67;101370.50;4964572;28;20051;-48
2021/08/09 02:12:15;;;;;;;17.60;4.20;;;;;;;15.59;77.00;101360.84;4964479;28;20089;-51
2021/08/09 02:14:46;;;;;;;24.23;4.90;;;;;;;15.52;77.12;101359.09;4952708;28;20031;-48
2021/08/09 02:17:14;;;;;;;19.23;4.63;;;;;;;15.51;76.86;101359.03;4969885;28;20030;-49
2021/08/09 02:19:45;;;;;;;14.95;4.38;;;;;;;15.46;77.20;101363.44;4964918;28;20020;-50
2021/08/09 02:22:16;;;;;;;20.55;4.45;;;;;;;15.45;76.93;101365.16;4963313;28;20037;-50
2021/08/09 02:24:52;;;;;;;20.75;4.53;;;;;;;15.38;77.75;101368.66;4960047;28;20019;-47
2021/08/09 02:27:19;;;;;;;18.73;4.22;;;;;;;15.39;77.69;101362.53;4980536;28;20476;-47
2021/08/09 02:29:48;;;;;;;20.98;4.63;;;;;;;15.44;77.23;101368.66;4983442;28;20513;-46
2021/08/09 02:32:15;;;;;;;20.73;4.72;;;;;;;15.30;78.27;101363.41;4965524;28;20407;-54
2021/08/09 02:34:40;;;;;;;20.10;4.43;;;;;;;15.35;77.26;101363.41;4966943;28;20130;-48
2021/08/09 02:37:07;;;;;;;20.45;4.70;;;;;;;15.30;76.97;101367.78;4961912;28;20058;-49
2021/08/09 02:39:34;;;;;;;14.13;4.53;;;;;;;15.25;77.72;101372.13;4965946;28;20218;-46
2021/08/09 02:42:00;;;;;;;21.17;4.25;;;;;;;15.24;77.63;101365.16;4964933;28;20054;-48
2021/08/09 02:44:26;;;;;;;17.23;4.50;;;;;;;15.19;77.80;101370.38;4978800;28;20479;-49
2021/08/09 02:46:52;;;;;;;21.65;5.00;;;;;;;15.29;77.42;101366.91;4963878;28;20418;-50
2021/08/09 02:49:18;;;;;;;16.77;4.53;;;;;;;15.36;77.05;101362.56;4963961;28;20085;-46
2021/08/09 02:51:45;;;;;;;19.27;4.20;;;;;;;15.40;76.83;101372.19;4966576;28;20038;-51
2021/08/09 02:54:10;;;;;;;23.38;4.40;;;;;;;15.38;76.63;101366.91;4963717;28;20054;-49
2021/08/09 02:56:36;;;;;;;22.17;4.60;;;;;;;15.36;76.80;101367.81;4964320;28;20113;-47
2021/08/09 02:59:01;;;;;;;24.42;4.60;;;;;;;15.37;76.72;101365.16;4966151;28;20277;-48
2021/08/09 03:01:28;;;;;;;15.00;4.20;;;;;;;15.43;76.38;101366.91;4967543;28;20061;-47
2021/08/09 03:03:58;;;;;;;17.20;4.53;;;;;;;15.39;76.88;101365.16;4957579;28;20041;-47
2021/08/09 03:06:25;;;;;;;21.08;4.50;;;;;;;15.42;76.32;101370.44;4981496;28;20318;-48
2021/08/09 03:08:50;;;;;;;16.05;4.63;;;;;;;15.40;76.52;101375.69;4964767;28;20042;-48
2021/08/09 03:11:15;;;;;;;18.65;4.22;;;;;;;15.43;76.57;101369.53;4962853;28;20072;-47
2021/08/09 03:13:48;;;;;;;18.10;4.53;;;;;;;15.39;77.50;101370.41;4978829;28;20038;-50
2021/08/09 03:16:14;;;;;;;21.17;5.00;;;;;;;15.39;76.95;101373.94;4961417;28;20106;-49
2021/08/09 03:18:39;;;;;;;19.40;4.10;;;;;;;15.40;76.67;101366.91;4966727;28;20345;-45
2021/08/09 03:21:08;;;;;;;20.02;4.78;;;;;;;15.39;76.83;101373.03;4966032;28;20339;-47
2021/08/09 03:23:34;;;;;;;20.65;4.35;;;;;;;15.37;77.24;101378.28;4965048;28;20136;-50
2021/08/09 03:25:59;;;;;;;20.00;4.90;;;;;;;15.20;77.77;101377.38;4963027;28;20035;-48
2021/08/09 03:28:25;;;;;;;21.95;4.95;;;;;;;15.11;78.63;101374.75;4959056;28;20069;-51
2021/08/09 03:30:50;;;;;;;14.95;4.18;;;;;;;15.18;78.11;101376.53;4965663;28;20200;-48
2021/08/09 03:33:16;;;;;;;17.80;4.85;;;;;;;15.10;78.69;101382.63;4964108;28;20237;-46
2021/08/09 03:35:41;;;;;;;19.67;4.53;;;;;;;15.11;78.68;101380.00;4970054;28;20088;-46
2021/08/09 03:38:06;;;;;;;14.75;4.45;;;;;;;15.07;78.63;101382.59;4960715;28;20082;-47
2021/08/09 03:40:32;;;;;;;19.35;5.18;;;;;;;15.19;78.61;101374.75;4969934;28;20035;-47
2021/08/09 03:42:58;;;;;;;23.65;4.82;;;;;;;15.17;78.20;101379.13;4966580;28;20030;-50
2021/08/09 03:45:23;;;;;;;21.60;5.45;;;;;;;15.13;78.58;101379.97;4965480;28;20512;-51
2021/08/09 03:47:49;;;;;;;19.23;4.68;;;;;;;15.05;78.89;101381.72;4964347;28;20033;-48
2021/08/09 03:50:15;;;;;;;21.58;4.88;;;;;;;15.05;78.99;101373.84;4959927;28;20033;-49
2021/08/09 03:52:52;;;;;;;20.45;4.90;;;;;;;15.19;78.73;101378.25;4966875;28;20035;-46
2021/08/09 03:55:17;;;;;;;17.15;4.70;;;;;;;15.14;78.80;101380.00;4981164;28;20035;-46
2021/08/09 03:57:43;;;;;;;19.48;4.60;;;;;;;15.15;78.95;101383.50;4964150;28;20038;-46
2021/08/09 04:00:09;;;;;;;22.60;5.55;;;;;;;15.12;79.29;101386.13;4965776;28;21324;-48
2021/08/09 04:02:35;;;;;;;23.02;4.97;;;;;;;15.08;79.45;101382.59;4965470;28;20062;-47
2021/08/09 04:05:00;;;;;;;22.90;5.28;;;;;;;15.03;79.37;101381.72;4973146;28;20173;-51
2021/08/09 04:07:27;;;;;;;23.20;5.35;;;;;;;15.15;79.23;101379.13;4960248;28;20545;-50
2021/08/09 04:09:55;;;;;;;28.27;5.13;;;;;;;15.24;78.67;101379.16;4968181;28;20038;-47
2021/08/09 04:12:21;;;;;;;20.83;4.90;;;;;;;15.28;78.69;101386.16;4960710;28;20037;-48
2021/08/09 04:14:47;;;;;;;14.75;4.85;;;;;;;15.13;78.90;101395.75;4962674;28;20129;-48
2021/08/09 04:17:13;;;;;;;17.33;4.63;;;;;;;15.12;78.75;101399.25;4963266;28;20358;-46
2021/08/09 04:19:38;;;;;;;17.30;4.65;;;;;;;15.28;78.37;101401.06;4965839;28;20501;-51
2021/08/09 04:22:04;;;;;;;22.17;5.00;;;;;;;15.20;78.25;101393.16;4968224;28;20089;-47
2021/08/09 04:24:29;;;;;;;21.88;4.85;;;;;;;15.19;78.41;101395.75;4960757;28;20538;-47
2021/08/09 04:26:55;;;;;;;18.23;5.03;;;;;;;15.26;78.72;101398.41;4965788;28;20042;-47
2021/08/09 04:29:20;;;;;;;20.55;5.05;;;;;;;15.15;79.00;101400.13;4963192;28;20482;-53
2021/08/09 04:31:46;;;;;;;20.40;4.80;;;;;;;15.15;78.70;101400.13;4963946;28;20394;-46
2021/08/09 04:34:11;;;;;;;20.75;4.40;;;;;;;15.16;78.82;101403.66;4966221;28;20128;-51
2021/08/09 04:36:36;;;;;;;17.17;4.22;;;;;;;15.09;78.71;101401.88;4965748;28;20035;-46
2021/08/09 04:39:02;;;;;;;22.83;4.57;;;;;;;15.06;78.74;101394.00;4967365;28;20034;-47
2021/08/09 04:41:27;;;;;;;14.20;3.95;;;;;;;15.23;77.85;101394.91;4967718;28;20042;-49
2021/08/09 04:43:53;;;;;;;18.77;4.50;;;;;;;15.14;78.38;101397.50;4966398;28;20050;-48
2021/08/09 04:46:18;;;;;;;15.93;4.05;;;;;;;15.15;78.31;101397.50;4966545;28;20035;-49
2021/08/09 04:48:43;;;;;;;18.25;4.10;;;;;;;15.17;78.54;101398.41;4969879;28;20401;-47
2021/08/09 04:51:09;;;;;;;17.27;3.88;;;;;;;15.20;78.30;101401.03;4964097;28;20498;-49
2021/08/09 04:53:34;;;;;;;16.40;4.18;;;;;;;15.23;77.95;101402.78;4965709;28;20046;-50
2021/08/09 04:56:00;;;;;;;20.88;4.10;;;;;;;15.27;77.38;101400.16;4967381;28;20058;-47
2021/08/09 04:58:25;;;;;;;22.15;4.15;;;;;;;15.30;77.23;101408.06;4971378;28;20038;-50
2021/08/09 05:00:51;;;;;;;14.65;3.80;;;;;;;15.35;77.44;101413.34;4966757;28;20026;-47
2021/08/09 05:03:16;;;;;;;18.50;4.00;;;;;;;15.44;77.37;101406.34;4961208;28;20038;-47
2021/08/09 05:05:43;;;;;;;14.02;3.30;;;;;;;15.36;77.15;101407.22;4967060;28;20039;-46
2021/08/09 05:08:08;;;;;;;17.40;3.75;;;;;;;15.58;76.86;101408.16;4971875;28;20031;-47
2021/08/09 05:10:34;;;;;;;17.85;3.72;;;;;;;15.42;77.09;101407.22;4963725;28;20575;-47
2021/08/09 05:12:59;;;;;;;18.08;3.50;;;;;;;15.57;76.37;101404.63;4971207;28;20109;-46
2021/08/09 05:15:26;;;;;;;16.83;3.90;;;;;;;15.67;76.25;101403.78;4967484;28;20019;-47
2021/08/09 05:17:52;;;;;;;15.35;3.40;;;;;;;15.85;76.22;101402.06;4971463;28;20026;-51
2021/08/09 05:20:17;;;;;;;14.98;3.65;;;;;;;16.01;75.06;101402.03;4962534;28;20109;-51
2021/08/09 05:22:42;;;;;;;12.98;3.50;;;;;;;16.07;75.08;101401.16;4967054;28;20517;-49
2021/08/09 05:25:10;;;;;;;14.82;3.40;;;;;;;16.23;74.46;101401.13;4972725;28;20018;-47
2021/08/09 05:27:39;;;;;;;17.25;3.38;;;;;;;16.26;74.51;101404.66;4964236;28;20535;-48
2021/08/09 05:30:05;;;;;;;11.85;3.30;;;;;;;16.45;73.48;101399.34;4965287;28;20018;-52
2021/08/09 05:32:31;;;;;;;14.50;3.20;;;;;;;16.63;72.33;101409.00;4963803;28;20267;-48
2021/08/09 05:34:59;;;;;;;14.38;3.00;;;;;;;16.84;71.97;101402.75;4965595;28;20486;-48
2021/08/09 05:37:27;;;;;;;13.02;3.22;;;;;;;16.98;71.95;101406.22;4967953;28;20037;-47
2021/08/09 05:39:57;;;;;;;12.73;3.00;;;;;;;17.08;72.47;101407.06;4968606;28;20376;-49
2021/08/09 05:42:25;;;;;;;12.73;3.13;;;;;;;17.14;71.41;101410.53;4966016;28;20030;-52
2021/08/09 05:44:51;;;;;;;13.00;3.05;;;;;;;17.13;70.40;101414.06;4964928;28;20042;-46
2021/08/09 05:47:17;;;;;;;13.07;3.08;;;;;;;17.14;70.63;101422.84;4963425;28;20034;-46
2021/08/09 05:49:42;;;;;;;12.63;2.75;;;;;;;17.13;70.77;101421.97;4968640;28;20034;-48
2021/08/09 05:52:07;;;;;;;14.07;3.13;;;;;;;17.00;70.75;101429.03;4966917;28;20042;-47
2021/08/09 05:54:33;;;;;;;13.48;2.70;;;;;;;16.79;71.87;101426.47;4958031;28;20037;-48
2021/08/09 05:56:58;;;;;;;15.00;2.90;;;;;;;16.66;72.71;101435.28;4967137;28;20453;-49
2021/08/09 05:59:24;;;;;;;15.70;2.97;;;;;;;16.81;72.40;101430.00;4965968;28;20508;-46
2021/08/09 06:01:49;;;;;;;9.95;2.70;;;;;;;16.74;72.90;101430.88;4967123;28;20058;-49
2021/08/09 06:04:14;;;;;;;14.75;2.85;;;;;;;16.78;72.57;101434.38;4965133;28;20516;-50
2021/08/09 06:06:41;;;;;;;14.30;2.80;;;;;;;16.79;72.25;101425.59;4962486;28;20068;-47
2021/08/09 06:09:07;;;;;;;13.00;2.60;;;;;;;16.90;71.75;101432.56;4967632;28;20072;-48
2021/08/09 06:11:32;;;;;;;15.23;3.00;;;;;;;16.94;72.30;101425.56;4960710;28;20121;-47
2021/08/09 06:13:57;;;;;;;12.68;2.80;;;;;;;17.10;71.10;101436.91;4969684;28;20121;-51
2021/08/09 06:16:23;;;;;;;11.70;2.47;;;;;;;17.13;71.35;101436.91;4963795;28;20109;-46
2021/08/09 06:18:50;;;;;;;11.98;2.70;;;;;;;17.56;70.26;101433.16;4948317;28;20033;-50
2021/08/09 06:21:15;;;;;;;13.40;2.70;;;;;;;18.80;67.19;101423.25;4966800;28;20027;-48
2021/08/09 06:23:40;;;;;;;9.05;2.42;;;;;;;20.29;63.51;101412.28;4960498;28;20701;-48
2021/08/09 06:26:06;;;;;;;10.23;2.10;;;;;;;21.69;56.06;101420.88;4966463;28;20794;-48
2021/08/09 06:28:33;;;;;;;9.85;2.38;;;;;;;22.58;54.71;101415.06;4976119;28;20126;-50
2021/08/09 06:30:59;;;;;;;11.55;2.15;;;;;;;22.93;52.34;101417.63;4968516;28;20125;-47
2021/08/09 06:33:24;;;;;;;9.05;2.05;;;;;;;22.77;51.71;101407.47;4961075;28;20030;-47
2021/08/09 06:35:49;;;;;;;9.70;2.00;;;;;;;21.86;53.99;101421.34;4964243;28;20034;-48
2021/08/09 06:38:15;;;;;;;10.43;2.30;;;;;;;21.42;55.63;101422.38;4953661;28;20824;-47
2021/08/09 06:40:42;;;;;;;11.57;2.45;;;;;;;22.13;53.34;101423.34;4960720;28;20034;-47
2021/08/09 06:43:08;;;;;;;6.35;1.67;;;;;;;22.75;53.26;101420.81;4968318;28;20037;-49
2021/08/09 06:45:33;;;;;;;7.90;2.00;;;;;;;23.60;50.24;101420.94;4961618;28;20266;-46
2021/08/09 06:47:59;;;;;;;7.03;1.80;;;;;;;23.58;51.59;101424.56;4964465;28;20128;-47
2021/08/09 06:50:24;;;;;;;9.40;1.92;;;;;;;24.04;47.16;101424.78;4965472;28;20756;-49
2021/08/09 06:52:50;;;;;;;8.95;2.03;;;;;;;24.07;47.31;101418.50;4963275;28;20442;-47
2021/08/09 06:55:15;;;;;;;7.05;1.80;;;;;;;23.60;49.31;101418.28;4968468;28;20414;-48
2021/08/09 06:57:40;;;;;;;5.90;1.63;;;;;;;24.17;48.36;101420.81;4962056;28;20029;-48
2021/08/09 07:00:06;;;;;;;6.55;1.65;;;;;;;24.71;47.72;101419.81;4962912;28;20139;-52
2021/08/09 07:02:33;;;;;;;7.57;1.70;;;;;;;25.20;45.49;101423.34;4955587;28;20107;-49
2021/08/09 07:04:59;;;;;;;10.02;1.85;;;;;;;24.59;45.84;101417.59;4966207;28;20108;-46
2021/08/09 07:07:25;;;;;;;8.57;1.73;;;;;;;23.70;49.54;101418.84;4960553;28;20049;-49
2021/08/09 07:09:51;;;;;;;6.40;1.80;;;;;;;22.97;50.29;101421.94;4963088;28;20026;-47
2021/08/09 07:12:16;;;;;;;8.75;1.90;;;;;;;22.42;51.05;101429.69;4974848;28;20209;-48
2021/08/09 07:14:42;;;;;;;6.32;1.70;;;;;;;21.85;53.42;101432.88;4961027;28;20796;-49
2021/08/09 07:17:07;;;;;;;10.65;1.90;;;;;;;21.20;54.22;101429.06;4956235;28;20034;-47
2021/08/09 07:19:35;;;;;;;7.97;1.90;;;;;;;20.51;57.16;101424.25;4959973;28;20097;-48
2021/08/09 07:22:03;;;;;;;8.13;2.00;;;;;;;20.08;58.60;101434.69;4963646;28;20036;-48
2021/08/09 07:24:28;;;;;;;9.13;1.85;;;;;;;19.29;62.89;101439.38;4977056;28;20591;-48
2021/08/09 07:26:53;;;;;;;9.18;2.08;;;;;;;19.21;62.12;101437.75;4966221;28;20038;-48
2021/08/09 07:29:19;;;;;;;6.45;2.03;;;;;;;19.15;62.61;101432.56;4973342;28;20041;-47
2021/08/09 07:31:44;;;;;;;7.07;2.10;;;;;;;19.09;63.93;101430.81;4961096;28;20029;-47
2021/08/09 07:34:09;;;;;;;4.60;1.80;;;;;;;19.04;63.05;101430.91;4960357;28;20153;-48
2021/08/09 07:36:35;;;;;;;7.60;2.08;;;;;;;18.91;65.88;101426.66;4961381;28;20060;-47
2021/08/09 07:39:00;;;;;;;6.30;2.17;;;;;;;18.87;65.14;101437.28;4964992;28;20553;-49
2021/08/09 07:41:25;;;;;;;5.95;2.00;;;;;;;18.73;66.91;101436.56;4958951;28;20521;-49
2021/08/09 07:43:51;;;;;;;8.90;2.47;;;;;;;18.91;66.58;101431.94;4964193;28;20026;-49
2021/08/09 07:46:16;;;;;;;9.63;2.47;;;;;;;19.24;67.67;101435.06;4946819;28;20041;-48
2021/08/09 07:48:42;;;;;;;10.40;2.30;;;;;;;19.67;64.65;101427.41;4963882;28;20038;-50
2021/08/09 07:51:07;;;;;;;6.82;2.30;;;;;;;19.98;62.86;101428.69;4962868;28;20097;-47
2021/08/09 07:53:33;;;;;;;13.40;2.63;;;;;;;20.27;63.15;101438.78;4959618;28;20073;-48
2021/08/09 07:55:58;;;;;;;11.45;2.63;;;;;;;20.26;62.13;101432.59;4963028;28;20061;-46
2021/08/09 07:58:23;;;;;;;8.20;2.30;;;;;;;20.38;60.40;101426.25;4963182;28;20411;-48
2021/08/09 08:00:51;;;;;;;7.22;2.10;;;;;;;20.39;61.44;101425.34;4965393;28;20508;-48
2021/08/09 08:03:16;;;;;;;9.13;2.58;;;;;;;20.24;63.57;101425.59;4968024;28;20136;-48
2021/08/09 08:05:42;;;;;;;9.82;2.20;;;;;;;20.46;60.83;101428.75;4961940;28;20126;-47
2021/08/09 08:08:10;;;;;;;10.68;2.63;;;;;;;20.69;59.14;101421.25;4964182;28;20069;-49
2021/08/09 08:10:35;;;;;;;7.45;2.22;;;;;;;21.29;58.88;101427.09;4977830;28;20822;-47
2021/08/09 08:13:00;;;;;;;6.00;2.20;;;;;;;21.98;56.25;101415.75;4968086;28;20038;-46
2021/08/09 08:15:26;;;;;;;11.55;2.15;;;;;;;22.37;53.61;101416.53;4968363;28;20038;-47
2021/08/09 08:17:51;;;;;;;10.50;2.22;;;;;;;22.65;56.04;101414.84;4970533;28;20045;-47
2021/08/09 08:20:17;;;;;;;8.23;2.00;;;;;;;22.44;53.17;101407.47;4956854;28;20062;-46
2021/08/09 08:22:42;;;;;;;8.02;2.00;;;;;;;22.59;53.73;101416.81;4968910;28;20114;-48
2021/08/09 08:25:08;;;;;;;6.57;2.17;;;;;;;22.50;56.93;101406.44;4966539;28;20529;-48
2021/08/09 08:27:33;;;;;;;6.72;1.83;;;;;;;22.92;53.23;101415.03;4965140;28;20487;-47
2021/08/09 08:29:59;;;;;;;6.53;1.92;;;;;;;23.29;53.66;101423.66;4969405;28;20026;-47
2021/08/09 08:32:25;;;;;;;8.00;2.15;;;;;;;23.08;52.26;101423.41;4961553;28;20036;-47
2021/08/09 08:34:51;;;;;;;8.30;1.92;;;;;;;23.03;53.72;101412.91;4969400;28;20447;-46
2021/08/09 08:37:17;;;;;;;6.90;1.98;;;;;;;22.76;52.75;101413.69;4964655;28;20027;-48
2021/08/09 08:39:42;;;;;;;9.60;2.22;;;;;;;22.47;52.20;101410.03;4967127;28;20493;-49
2021/08/09 08:42:08;;;;;;;8.18;2.20;;;;;;;22.25;55.11;101420.38;4971695;28;20030;-50
2021/08/09 08:44:33;;;;;;;6.45;1.88;;;;;;;22.12;54.03;101428.69;4966183;28;20034;-47
2021/08/09 08:46:59;;;;;;;8.15;2.10;;;;;;;21.73;54.64;101430.50;4970762;28;20018;-46
2021/08/09 08:49:26;;;;;;;6.55;2.00;;;;;;;21.71;55.65;101427.03;4963168;28;20034;-48
2021/08/09 08:51:52;;;;;;;8.13;2.15;;;;;;;21.60;55.56;101426.38;4984891;28;20026;-48
2021/08/09 08:54:18;;;;;;;5.85;2.00;;;;;;;21.26;57.71;101428.94;4964556;28;20046;-47
2021/08/09 08:56:45;;;;;;;5.20;2.00;;;;;;;21.04;57.30;101436.47;4970786;28;20026;-48
2021/08/09 08:59:14;;;;;;;6.30;2.22;;;;;;;20.97;57.06;101435.72;4946430;28;20110;-50
2021/08/09 09:01:42;;;;;;;7.90;2.25;;;;;;;21.10;56.53;101441.63;4963059;28;20065;-47
2021/08/09 09:04:24;;;;;;;7.18;2.30;;;;;;;20.62;59.20;101440.81;4964584;28;20375;-49
2021/08/09 09:07:04;;;;;;;4.78;2.10;;;;;;;20.57;59.56;101438.25;4960064;28;20042;-48
2021/08/09 09:09:37;;;;;;;3.88;2.10;;;;;;;20.58;59.00;101447.06;4965880;28;20153;-47
2021/08/09 09:12:21;;;;;;;5.90;2.22;;;;;;;20.56;59.99;101449.75;4967505;28;20030;-50
2021/08/09 09:15:00;;;;;;;6.37;2.10;;;;;;;20.70;58.34;101454.78;4966810;28;20041;-50
2021/08/09 09:17:34;;;;;;;6.07;1.85;;;;;;;20.68;58.65;101448.63;4960894;28;20043;-46
2021/08/09 09:20:23;;;;;;;9.13;2.00;;;;;;;20.61;60.09;101444.38;4968399;28;20068;-49
2021/08/09 09:22:49;;;;;;;7.05;2.40;;;;;;;20.44;60.35;101443.78;4959836;28;20121;-47
2021/08/09 09:25:16;;;;;;;8.45;2.30;;;;;;;20.46;60.40;101442.88;4968971;28;20018;-48
2021/08/09 09:27:41;;;;;;;5.07;2.35;;;;;;;20.46;60.44;101442.00;4967736;28;20418;-48
2021/08/09 09:30:27;;;;;;;5.80;2.30;;;;;;;20.64;60.29;101454.91;4961647;28;20030;-47
2021/08/09 09:33:11;;;;;;;5.22;2.60;;;;;;;20.41;60.41;101443.88;4959246;28;20559;-47
2021/08/09 09:35:37;;;;;;;6.55;2.60;;;;;;;20.53;62.42;101448.94;4964042;28;20065;-47
2021/08/09 09:38:02;;;;;;;5.93;2.53;;;;;;;20.45;62.05;101449.06;4967978;28;20025;-46
2021/08/09 09:40:38;;;;;;;9.93;2.40;;;;;;;20.61;60.91;101447.03;4964312;28;20042;-50
2021/08/09 09:43:22;;;;;;;7.68;2.60;;;;;;;20.36;61.49;101445.72;4982735;28;20026;-47
2021/08/09 09:45:54;;;;;;;6.45;2.30;;;;;;;20.52;59.71;101440.13;4953729;28;20121;-48
2021/08/09 09:48:32;;;;;;;5.40;2.50;;;;;;;20.47;59.95;101446.41;4978355;28;20014;-46
2021/08/09 09:51:08;;;;;;;6.65;2.40;;;;;;;20.45;60.85;101443.78;4958638;28;20967;-46
2021/08/09 09:53:35;;;;;;;4.80;2.35;;;;;;;20.55;60.63;101445.34;4962391;28;20525;-50
2021/08/09 09:56:01;;;;;;;5.55;2.30;;;;;;;20.67;61.74;101452.22;4965324;28;20058;-48
2021/08/09 09:58:28;;;;;;;8.88;2.45;;;;;;;20.81;59.38;101450.16;4960618;28;20342;-49
2021/08/09 10:00:55;;;;;;;6.20;2.42;;;;;;;21.05;60.29;101449.66;4966480;28;20030;-49
2021/08/09 10:03:20;;;;;;;4.50;2.20;;;;;;;21.24;57.71;101446.66;4961406;28;20050;-47
2021/08/09 10:05:47;;;;;;;6.18;2.30;;;;;;;21.18;58.47;101449.44;4961810;28;20121;-49
2021/08/09 10:08:14;;;;;;;6.75;2.03;;;;;;;21.37;59.52;101443.72;4966472;28;20441;-47
2021/08/09 10:10:41;;;;;;;7.18;2.15;;;;;;;21.46;57.12;101450.59;4959262;28;20022;-47
2021/08/09 10:13:07;;;;;;;6.78;2.15;;;;;;;21.60;55.25;101442.31;4959299;28;20034;-48
2021/08/09 10:15:33;;;;;;;7.22;2.20;;;;;;;21.83;55.66;101446.16;4960924;28;20030;-47
2021/08/09 10:17:59;;;;;;;5.45;1.65;;;;;;;21.91;54.01;101448.63;4962242;28;20121;-47
2021/08/09 10:20:24;;;;;;;4.95;1.85;;;;;;;22.07;53.06;101438.56;4964257;28;20034;-51
2021/08/09 10:22:57;;;;;;;5.88;1.80;;;;;;;22.05;54.69;101446.56;4978960;28;20037;-49
2021/08/09 10:25:58;;;;;;;5.70;2.00;;;;;;;22.24;55.05;101439.88;4965511;28;20034;-49
2021/08/09 10:28:55;;;;;;;6.22;1.83;;;;;;;22.52;53.83;101436.47;4943735;28;20493;-50
2021/08/09 10:31:28;;;;;;;4.25;2.22;;;;;;;22.47;54.80;101435.72;4960758;28;20342;-49
2021/08/09 10:33:54;;;;;;;4.93;2.20;;;;;;;22.35;56.18;101442.25;4962910;28;20066;-46
2021/08/09 10:36:23;;;;;;;6.20;2.75;;;;;;;22.43;55.45;101447.38;4966507;28;20133;-45
2021/08/09 10:38:50;;;;;;;5.10;2.30;;;;;;;22.43;54.93;101450.03;4963068;28;20120;-49
2021/08/09 10:41:15;;;;;;;7.82;2.40;;;;;;;22.48;55.67;101445.47;4942787;28;20057;-49
2021/08/09 10:44:06;;;;;;;4.97;2.00;;;;;;;22.33;54.38;101446.72;4961950;28;20125;-48
2021/08/09 10:46:42;;;;;;;4.93;2.22;;;;;;;22.11;55.30;101437.56;4964703;28;20038;-47
2021/08/09 10:49:09;;;;;;;4.50;2.00;;;;;;;22.20;52.98;101434.69;4962851;28;20112;-49
2021/08/09 10:51:52;;;;;;;6.53;1.90;;;;;;;22.10;54.15;101439.34;4963267;28;20494;-48
2021/08/09 10:54:28;;;;;;;6.80;2.05;;;;;;;22.19;54.79;101425.84;4962408;28;20050;-46
2021/08/09 10:56:55;;;;;;;5.32;2.20;;;;;;;22.15;53.48;101429.47;4975049;28;20035;-50
2021/08/09 10:59:46;;;;;;;6.07;2.20;;;;;;;21.80;54.34;101432.09;4962269;28;20556;-46
2021/08/09 11:02:35;;;;;;;5.53;2.30;;;;;;;21.37;56.35;101427.78;4962074;28;20034;-47
2021/08/09 11:05:13;;;;;;;7.20;2.53;;;;;;;20.87;60.52;101425.31;4976008;28;20034;-47
2021/08/09 11:07:39;;;;;;;7.45;2.42;;;;;;;20.36;61.64;101453.69;4963954;28;20010;-46
2021/08/09 11:10:06;;;;;;;7.38;2.20;;;;;;;20.58;61.15;101442.66;4957259;28;20039;-47
2021/08/09 11:12:31;;;;;;;4.20;2.17;;;;;;;20.68;58.87;101448.63;4960849;28;20550;-47
2021/08/09 11:15:02;;;;;;;3.17;2.20;;;;;;;20.69;60.06;101449.50;4966002;28;20036;-49
2021/08/09 11:17:29;;;;;;;5.35;2.13;;;;;;;21.03;60.63;101453.25;4964744;28;20037;-51
2021/08/09 11:20:14;;;;;;;4.22;2.10;;;;;;;21.35;58.04;101456.13;4963772;28;20405;-47
2021/08/09 11:22:42;;;;;;;;;;;;;;;21.25;57.06;101462.53;4964904;28;20029;-46
2021/08/09 11:25:35;;;;;;;4.85;1.70;;;;;;;21.14;55.54;101458.34;4961540;28;19976;-48